Agra, Oklahoma
Current Conditions -  °F | °C
As of 1:55 PM on Monday 22 Dec 2014 (Local Time) from KCUH Reporting Station
Broken Clouds Broken Clouds  
Wind Chill: 54°   Ceiling: 3300
Heat Index: 54°   Visibility: 10mi
Dew Point: 48°   Wind: 8mph
Humidity: 82%   Direction: 300°WNW
Pressure: 29.54"   Gusts: NA
Location:  35.89°N, 96.87°W
Report Text: KCUH 221955Z AUTO 30007KT 10SM SCT026 BKN033 12/09 A2954 RMK AO2
Loading
Personal Weather Stations






























Interactive Weather Map New forecast layout! Learn more

10-Day Weather Forecast

Advertisements
Track Severe Weather on mobile